Adelphi, MD

10:02 AM EST on November 26, 2014 (GMT -0500)
College Heights Estates | Change Station
CLOSE
Current Station
Personal Weather Station
Location: Hyattsville, MD
Elevation: 121 ft
Nearby Weather Stations

Elev 121 ft 38.98 °N, 76.95 °W | Updated 2 minutes ago

Rain
Rain
38.4 °F
Feels Like 38 °F
N
2.0
Wind Variable Wind from NNE
Gusts 3.0 mph

Today
High -- | Low -- °F
--% Chance of Precip.
Yesterday
High -- | Low -- °F
Precip. -- in
7:02 AM 4:47 PM
Waxing Crescent, 20% visible
Pressure 30.09 in
Visibility 7.0 miles
Clouds Overcast 1100 ft
Windchill 38 °F
Dew Point 37 °F
Humidity 94%
Rainfall 0.67 in
Snow Depth Not available.
UV 1 out of 12
Pollen .10 out of 12
Air Quality Not available.
Flu Activity Not available.
METAR KCGS 261445Z AUTO 06003KT 7SM OVC011 04/03 A3009 RMK AO1

More Conditions Fewer Conditions

Pressure 30.09 in
Visibility 7.0 miles
Clouds Overcast 1100 ft
Windchill 38 °F
Dew Point 37 °F
Humidity 94%
Rainfall 0.67 in
Snow Depth Not available.
UV 1 out of 12
Pollen .10 out of 12
Air Quality Not available.
Flu Activity Not available.
METAR KCGS 261445Z AUTO 06003KT 7SM OVC011 04/03 A3009 RMK AO1

More Conditions Fewer Conditions

10-Day Weather Forecast

Almanac

Astronomy

Nov. 26, 2014 Rise Set
Actual Time
Civil Twilight
Nautical Twilight
Astronomical Twilight
Moon
Length of Visible Light
Length of Day
Tomorrow will be .
, % of the Moon is Illuminated

Today's Extremes

State Highs State Lows

Community

WunderPhotos

Upload Photos

1,773,769 photos uploaded!

WunderBlogs® & News

Nearby

Air Quality

  Air Quality AQ Index Pollutant
Not available.

Snow Depth

Station Depth Elevation

Earthquake Activity

City Distance Mag. Time & Date
Minimum magnitude displayed is 2.5.

Coastal Water Temperatures

Place Temperature

Nearby Weather Stations